Data for 07/21/2014

Time Sea-Level Adjusted Pressure Absolute Pressure Temperature Relative Humidity Dew Point   
(mb) (inHg) (mb) (inHg) (C) (F) (%) (C) (F)
00:05 1014 29.94 843 24.89 21 69.8 29 2.3 36.1
00:10 1014 29.94 843 24.89 21.1 70 27 1.5 34.7
00:15 1014 29.94 843 24.89 21.5 70.7 27 2 35.6
00:20 1014 29.94 843 24.89 21.4 70.5 30 3.3 37.9
00:25 1014 29.94 843 24.89 21.4 70.5 28 2.6 36.6
00:30 1014 29.94 843 24.89 21.4 70.5 30 3.1 37.6
00:35 1014 29.94 843 24.89 21.3 70.4 30 3.4 38.2
00:40 1014 29.94 844 24.92 21.4 70.4 29 2.8 37
00:45 1014 29.94 844 24.92 21.2 70.1 30 3.1 37.5
00:50 1014 29.94 844 24.92 21.2 70.1 31 3.4 38.1
00:55 1014 29.94 844 24.92 21.1 69.9 31 3.5 38.2
01:00 1014 29.94 844 24.92 20.8 69.4 31 3 37.4
01:05 1014 29.94 844 24.92 20.8 69.4 30 2.9 37.1
01:10 1014 29.94 844 24.92 20.8 69.5 32 3.5 38.3
01:15 1014 29.94 844 24.92 20.6 69.1 31 3.3 37.9
01:20 1015 29.97 844 24.92 20.6 69 33 3.8 38.9
01:25 1015 29.97 844 24.92 20.7 69.2 32 3.6 38.4
01:30 1015 29.97 844 24.92 20.9 69.6 30 3 37.3
01:35 1015 29.97 844 24.92 21 69.8 32 3.8 38.9
01:40 1015 29.97 844 24.92 20.7 69.2 31 3.3 38
01:45 1015 29.97 844 24.92 20.7 69.3 32 3.6 38.4
01:50 1014 29.94 844 24.92 21 69.8 31 3.2 37.8
01:55 1014 29.94 844 24.92 21.1 70.1 32 3.9 39
02:00 1014 29.94 844 24.92 21 69.7 32 3.8 38.8
02:05 1014 29.94 844 24.92 20.9 69.7 32 3.9 39
02:10 1014 29.94 844 24.92 20.9 69.7 33 4.1 39.3
02:15 1015 29.97 844 24.92 21 69.9 33 4.2 39.6
02:20 1015 29.97 844 24.92 21.1 70 33 4.5 40
02:25 1015 29.97 844 24.92 21.1 70 33 4.4 39.9
02:30 1015 29.97 844 24.92 21 69.9 34 4.6 40.4
02:35 1015 29.97 844 24.92 21 69.7 33 4.3 39.7
02:40 1015 29.97 844 24.92 21.1 69.9 34 4.6 40.3
02:45 1015 29.97 844 24.92 21 69.9 34 4.9 40.9
02:50 1015 29.97 844 24.92 21 69.7 34 4.9 40.8
02:55 1015 29.97 844 24.92 21 69.9 34 4.8 40.7
03:00 1015 29.97 844 24.92 21 69.8 36 5.5 41.8
03:05 1015 29.97 844 24.92 20.9 69.7 34 4.5 40
03:10 1015 29.97 844 24.92 20.8 69.5 34 4.4 40
03:15 1015 29.97 844 24.92 20.7 69.2 33 4.2 39.5
03:20 1015 29.97 845 24.95 20.6 69.1 33 4.1 39.4
03:25 1015 29.97 845 24.95 20.5 68.9 34 4.4 40
03:30 1015 29.97 845 24.95 20.4 68.8 34 4.4 39.9
03:35 1015 29.97 845 24.95 20.5 68.8 34 4.2 39.6
03:40 1016 30 845 24.95 20.4 68.7 35 4.5 40.1
03:45 1016 30 845 24.95 20.4 68.6 36 5 40.9
03:50 1016 30 845 24.95 19.9 67.7 39 5.6 42.2
03:55 1016 30 845 24.95 19.4 66.8 41 6 42.8
04:00 1016 30 845 24.95 19 66.2 42 6.1 42.9
04:05 1016 30 845 24.95 19 66.1 42 5.8 42.5
04:10 1016 30 845 24.95 18.9 66 42 5.8 42.4
04:15 1016 30 845 24.95 18.9 66.1 39 5 41
04:20 1016 30 845 24.95 19.1 66.3 40 5.4 41.7
04:25 1016 30 845 24.95 19.4 66.9 39 5.4 41.7
04:30 1016 30 846 24.98 19.5 67.2 38 5.2 41.3
04:35 1016 30 846 24.98 19.6 67.2 39 5.5 41.9
04:40 1017 30.03 846 24.98 19.3 66.7 42 6.2 43.2
04:45 1016 30 846 24.98 18.7 65.6 47 7.3 45.1
04:50 1017 30.03 846 24.98 18.2 64.8 49 7.4 45.3
04:55 1017 30.03 846 24.98 18 64.3 47 6.7 44.1
05:00 1017 30.03 846 24.98 17.8 64 50 7.4 45.4
05:05 1017 30.03 846 24.98 17.7 63.9 51 7.5 45.5
05:10 1017 30.03 846 24.98 17.7 63.9 52 7.8 46
05:15 1017 30.03 846 24.98 17.7 63.8 51 7.7 45.8
05:20 1017 30.03 846 24.98 17.6 63.7 52 7.8 46.1
05:25 1017 30.03 846 24.98 17.5 63.5 55 8.4 47
05:30 1017 30.03 846 24.98 17.3 63.1 56 8.4 47.2
05:35 1017 30.03 846 24.98 17.4 63.3 53 7.8 46
05:40 1017 30.03 846 24.98 17.5 63.5 53 8 46.5
05:45 1017 30.03 846 24.98 17.5 63.5 54 8.2 46.8
05:50 1017 30.03 846 24.98 17.3 63.1 57 8.7 47.6
05:55 1017 30.03 846 24.98 16.9 62.4 58 8.7 47.6
06:00 1017 30.03 846 24.98 16.9 62.4 56 8.2 46.8
06:05 1017 30.03 847 25.01 17 62.7 56 8.2 46.8
06:10 1017 30.03 847 25.01 17 62.6 58 8.7 47.7
06:15 1017 30.03 847 25.01 17 62.6 58 8.8 47.8
06:20 1018 30.06 847 25.01 16.9 62.4 60 9.1 48.3
06:25 1018 30.06 847 25.01 16.8 62.2 61 9.2 48.6
06:30 1018 30.06 847 25.01 16.9 62.3 66 10.5 51
06:35 1018 30.06 847 25.01 16.6 61.9 64 9.7 49.5
06:40 1018 30.06 847 25.01 16.4 61.5 67 10.4 50.7
06:45 1018 30.06 847 25.01 16.4 61.5 67 10.3 50.5
06:50 1018 30.06 847 25.01 16.3 61.4 66 10 50
06:55 1018 30.06 847 25.01 16.4 61.5 68 10.6 51.1
07:00 1018 30.06 847 25.01 16.6 61.8 67 10.5 50.8
07:05 1018 30.06 847 25.01 16.8 62.3 63 9.9 49.8
07:10 1018 30.06 847 25.01 17.3 63.2 58 9.2 48.5
07:15 1018 30.06 847 25.01 17.7 63.8 60 10 49.9
07:20 1018 30.06 847 25.01 17.8 64 62 10.5 50.9
07:25 1018 30.06 847 25.01 17.8 64.1 66 11.4 52.5
07:30 1018 30.06 847 25.01 17.1 62.7 72 12.1 53.8
07:35 1018 30.06 847 25.01 16.5 61.7 70 11.2 52.1
07:40 1018 30.06 847 25.01 16.4 61.5 71 11.1 52
07:45 1018 30.06 848 25.04 16.5 61.7 67 10.4 50.6
07:50 1018 30.06 848 25.04 16.8 62.3 68 10.9 51.7
07:55 1018 30.06 848 25.04 16.9 62.4 68 11 51.8
08:00 1019 30.09 848 25.04 16.9 62.5 69 11.3 52.3
08:05 1019 30.09 848 25.04 17 62.5 72 12 53.5
08:10 1019 30.09 848 25.04 16.6 61.9 75 12.3 54.1
08:15 1019 30.09 848 25.04 16.5 61.7 79 12.8 55
08:20 1019 30.09 848 25.04 16.4 61.5 75 12 53.7
08:25 1019 30.09 848 25.04 16 60.7 78 12.3 54.1
08:30 1019 30.09 848 25.04 15.7 60.3 81 12.6 54.6
08:35 1018 30.06 848 25.04 15.6 60.2 80 12.2 54
08:40 1018 30.06 848 25.04 15.7 60.3 78 12 53.6
08:45 1018 30.06 848 25.04 15.8 60.4 78 11.9 53.5
08:50 1018 30.06 848 25.04 16 60.7 77 12 53.5
08:55 1018 30.06 848 25.04 16.3 61.3 77 12.4 54.3
09:00 1018 30.06 848 25.04 16.7 62.1 77 12.7 54.9
09:05 1018 30.06 847 25.01 17.3 63.2 76 13 55.5
09:10 1018 30.06 847 25.01 17.3 63.1 69 11.7 53
09:15 1018 30.06 847 25.01 17.5 63.5 70 12 53.6
09:20 1018 30.06 847 25.01 17.9 64.1 67 11.8 53.3
09:25 1018 30.06 847 25.01 18.4 65.2 64 11.6 52.9
09:30 1018 30.06 847 25.01 18.7 65.6 61 11.1 52
09:35 1018 30.06 847 25.01 19.2 66.5 59 11.1 52
09:40 1018 30.06 847 25.01 19.4 66.9 61 11.8 53.3
09:45 1018 30.06 847 25.01 19.6 67.2 58 11.3 52.4
09:50 1018 30.06 847 25.01 19.8 67.6 60 12 53.6
09:55 1018 30.06 847 25.01 20.3 68.5 55 11.2 52.1
10:00 1018 30.06 847 25.01 20.9 69.6 52 10.8 51.5
10:05 1018 30.06 847 25.01 21.1 69.9 52 10.8 51.5
10:10 1018 30.06 847 25.01 21.1 70 50 10.4 50.7
10:15 1018 30.06 847 25.01 21.1 70 49 10.1 50.1
10:20 1018 30.06 848 25.04 22.1 71.8 47 10.3 50.5
10:25 1018 30.06 848 25.04 22.6 72.7 45 10.1 50.2
10:30 1018 30.06 847 25.01 23.9 74.9 41 9.9 49.8
10:35 1018 30.06 848 25.04 24.1 75.4 41 10.2 50.4
10:40 1018 30.06 848 25.04 23.8 74.9 42 10.3 50.5
10:45 1018 30.06 848 25.04 23.7 74.6 41 9.9 49.8
10:50 1018 30.06 848 25.04 24 75.1 40 9.8 49.6
10:55 1018 30.06 848 25.04 24.3 75.8 37 9 48.2
11:00 1018 30.06 848 25.04 25 77 38 10 50.1
11:05 1018 30.06 848 25.04 24.9 76.7 39 10.4 50.7
11:10 1018 30.06 848 25.04 24.6 76.4 39 10 50
11:15 1018 30.06 847 25.01 25 77 41 10.9 51.6
11:20 1018 30.06 848 25.04 24.4 76 40 10.3 50.6
11:25 1018 30.06 848 25.04 25.2 77.3 39 10.4 50.7
11:30 1018 30.06 848 25.04 25.6 78.1 41 11.4 52.6
11:35 1018 30.06 848 25.04 24.6 76.4 43 11.5 52.8
11:40 1018 30.06 848 25.04 24.2 75.6 36 8.3 46.9
11:45 1018 30.06 848 25.04 25 77 35 8.8 47.8
11:50 1018 30.06 848 25.04 25.2 77.4 32 7.5 45.6
11:55 1018 30.06 848 25.04 24.9 76.9 34 8.1 46.5
12:00 1018 30.06 848 25.04 24.5 76.2 33 7.3 45.2
12:05 1018 30.06 848 25.04 24.4 76 36 8.7 47.7
12:10 1018 30.06 848 25.04 24.5 76.1 32 7 44.6
12:15 1018 30.06 847 25.01 24.5 76.1 34 8 46.5
12:20 1018 30.06 848 25.04 24.7 76.4 33 7.6 45.7
12:25 1018 30.06 847 25.01 24.4 76 32 6.8 44.2
12:30 1018 30.06 847 25.01 24.7 76.5 31 6.9 44.4
12:35 1018 30.06 847 25.01 24.6 76.2 33 7.4 45.2
12:40 1018 30.06 847 25.01 24.7 76.5 31 6.5 43.7
12:45 1018 30.06 847 25.01 24.5 76.1 30 6.2 43.2
12:50 1018 30.06 847 25.01 25 76.9 31 7 44.6
12:55 1018 30.06 847 25.01 25.1 77.1 30 6.4 43.6
13:00 1018 30.06 847 25.01 25.3 77.5 29 6.4 43.4
13:05 1018 30.06 847 25.01 24.9 76.8 30 6.4 43.6
13:10 1018 30.06 848 25.04 24.4 75.8 31 6.5 43.6
13:15 1018 30.06 848 25.04 24.2 75.5 33 7.3 45.1
13:20 1018 30.06 848 25.04 24 75.1 34 7.4 45.3
13:25 1019 30.09 848 25.04 23.8 74.9 36 7.9 46.2
13:30 1018 30.06 848 25.04 23.5 74.3 37 8 46.4
13:35 1019 30.09 848 25.04 23.3 73.9 38 8.2 46.8
13:40 1018 30.06 848 25.04 23 73.5 36 7.2 44.9
13:45 1018 30.06 848 25.04 22.8 73.1 38 7.9 46.3
13:50 1018 30.06 847 25.01 22.6 72.7 37 7.3 45.2
13:55 1018 30.06 847 25.01 22.6 72.6 35 6.7 44.1
14:00 1018 30.06 847 25.01 22.6 72.7 36 7.2 44.9
14:05 1018 30.06 847 25.01 22.7 72.8 36 7.2 44.9
14:10 1018 30.06 848 25.04 22.7 72.8 37 7.3 45.1
14:15 1019 30.09 848 25.04 22.7 72.9 36 7 44.6
14:20 1019 30.09 848 25.04 22.8 73 37 7.4 45.4
14:25 1019 30.09 848 25.04 22.9 73.1 35 6.6 44
14:30 1019 30.09 848 25.04 23.1 73.5 34 6.8 44.2
14:35 1019 30.09 848 25.04 23.4 74.1 34 6.8 44.2
14:40 1019 30.09 848 25.04 23.7 74.6 36 7.8 46.1
14:45 1019 30.09 848 25.04 24.1 75.4 31 6 42.8
14:50 1019 30.09 848 25.04 24.2 75.6 32 6.5 43.6
14:55 1019 30.09 848 25.04 24.6 76.3 31 6.4 43.5
15:00 1019 30.09 848 25.04 24.5 76.1 31 6.3 43.3
15:05 1019 30.09 848 25.04 24.3 75.7 30 5.9 42.5
15:10 1019 30.09 848 25.04 24.4 75.9 31 6.3 43.4
15:15 1019 30.09 848 25.04 24.8 76.7 30 6.3 43.3
15:20 1019 30.09 848 25.04 25.1 77.1 28 5.8 42.4
15:25 1019 30.09 848 25.04 25.3 77.5 27 5.4 41.7
15:30 1019 30.09 848 25.04 25.3 77.6 30 6.5 43.8
15:35 1019 30.09 848 25.04 25.1 77.2 29 6.1 42.9
15:40 1019 30.09 848 25.04 25.3 77.5 30 6.6 43.8
15:45 1019 30.09 848 25.04 25.2 77.3 29 6.3 43.3
15:50 1019 30.09 848 25.04 25.7 78.2 29 6.5 43.8
15:55 1019 30.09 848 25.04 25.9 78.7 28 6.1 42.9
16:00 1019 30.09 848 25.04 25.8 78.5 31 7.6 45.6
16:05 1019 30.09 848 25.04 26.2 79.1 32 8.2 46.8
16:10 1019 30.09 848 25.04 26.1 79 31 7.9 46.3
16:15 1019 30.09 848 25.04 25.9 78.7 31 7.9 46.3
16:20 1019 30.09 848 25.04 25.7 78.3 32 8.1 46.6
16:25 1019 30.09 848 25.04 25.8 78.5 32 8.2 46.8
16:30 1019 30.09 848 25.04 25.7 78.3 33 8.4 47.1
16:35 1019 30.09 848 25.04 25.6 78 32 8.1 46.6
16:40 1019 30.09 848 25.04 25.4 77.8 33 8.3 47
16:45 1019 30.09 848 25.04 25.4 77.7 34 8.5 47.4
16:50 1019 30.09 848 25.04 25.5 77.9 33 8.3 47
16:55 1019 30.09 848 25.04 25.5 77.9 34 8.6 47.4
17:00 1019 30.09 848 25.04 25.4 77.8 33 8.2 46.8
17:05 1019 30.09 848 25.04 25.2 77.4 33 8.2 46.7
17:10 1019 30.09 848 25.04 25 77.1 34 8.3 46.9
17:15 1019 30.09 848 25.04 24.9 76.8 35 8.4 47.2
17:20 1019 30.09 848 25.04 24.9 76.7 35 8.5 47.3
17:25 1019 30.09 848 25.04 24.8 76.7 35 8.5 47.4
17:30 1019 30.09 848 25.04 24.7 76.5 35 8.6 47.4
17:35 1019 30.09 848 25.04 24.7 76.4 35 8.3 46.9
17:40 1019 30.09 848 25.04 24.8 76.7 35 8.5 47.4
17:45 1019 30.09 849 25.07 24.9 76.7 36 8.8 47.9
17:50 1019 30.09 849 25.07 24.6 76.3 37 9.3 48.7
17:55 1019 30.09 849 25.07 24.5 76.1 37 9.1 48.4
18:00 1019 30.09 849 25.07 24 75.2 39 9.2 48.6
18:05 1019 30.09 849 25.07 23.5 74.2 39 9 48.3
18:10 1019 30.09 849 25.07 23.3 74 38 8.6 47.5
18:15 1020 30.12 849 25.07 23.3 74 38 8.5 47.3
18:20 1020 30.12 849 25.07 23.4 74.1 38 8.5 47.3
18:25 1020 30.12 849 25.07 23.4 74 38 8.4 47.2
18:30 1020 30.12 849 25.07 23.1 73.6 39 8.7 47.6
18:35 1020 30.12 849 25.07 23.1 73.7 38 8.4 47.1
18:40 1020 30.12 849 25.07 23.2 73.8 38 8.4 47.2
18:45 1020 30.12 849 25.07 23.1 73.6 39 8.6 47.6
18:50 1020 30.12 849 25.07 23 73.5 38 8.2 46.7
18:55 1020 30.12 849 25.07 23.1 73.5 39 8.6 47.5
19:00 1020 30.12 849 25.07 22.9 73.3 39 8.3 47
19:05 1020 30.12 849 25.07 22.7 72.8 40 8.6 47.4
19:10 1020 30.12 849 25.07 22.6 72.6 42 9 48.2
19:15 1020 30.12 849 25.07 22.4 72.4 42 9.2 48.6
19:20 1020 30.12 849 25.07 22.3 72.1 44 9.5 49.1
19:25 1020 30.12 849 25.07 22.1 71.8 44 9.6 49.2
19:30 1020 30.12 849 25.07 22 71.5 45 9.6 49.3
19:35 1020 30.12 850 25.1 21.8 71.3 45 9.6 49.3
19:40 1020 30.12 850 25.1 21.7 71 46 9.8 49.7
19:45 1020 30.12 850 25.1 21.5 70.7 47 9.9 49.8
19:50 1020 30.12 850 25.1 21.4 70.4 48 10.1 50.2
19:55 1021 30.15 850 25.1 21.1 70.1 49 10.2 50.3
20:00 1021 30.15 850 25.1 21 69.9 50 10.2 50.4
20:05 1021 30.15 850 25.1 20.9 69.6 51 10.5 50.8
20:10 1021 30.15 850 25.1 20.7 69.3 51 10.4 50.7
20:15 1021 30.15 850 25.1 20.7 69.2 51 10.4 50.7
20:20 1021 30.15 850 25.1 20.5 69 52 10.3 50.6
20:25 1021 30.15 850 25.1 20.4 68.8 52 10.3 50.5
20:30 1021 30.15 850 25.1 20.4 68.8 52 10.5 50.9
20:35 1021 30.15 850 25.1 20.4 68.7 55 11.1 51.9
20:40 1021 30.15 850 25.1 20.3 68.5 53 10.5 50.9
20:45 1021 30.15 850 25.1 20.2 68.3 51 9.8 49.6
20:50 1021 30.15 850 25.1 20.3 68.5 50 9.7 49.5
20:55 1021 30.15 850 25.1 20.3 68.6 49 9.4 48.9
21:00 1021 30.15 850 25.1 20.4 68.7 49 9.6 49.3
21:05 1021 30.15 850 25.1 20.4 68.6 50 9.8 49.6
21:10 1021 30.15 850 25.1 20.3 68.5 50 9.7 49.5
21:15 1021 30.15 851 25.13 20.2 68.4 50 9.7 49.4
21:20 1021 30.15 851 25.13 20.1 68.3 50 9.6 49.3
21:25 1021 30.15 850 25.1 20.1 68.3 50 9.6 49.3
21:30 1021 30.15 850 25.1 20.1 68.2 50 9.5 49.2
21:35 1021 30.15 851 25.13 20.1 68.2 49 9.3 48.7
21:40 1021 30.15 851 25.13 20.2 68.3 49 9.3 48.8
21:45 1021 30.15 851 25.13 20.2 68.4 49 9.3 48.8
21:50 1021 30.15 851 25.13 20.2 68.4 50 9.5 49.1
21:55 1021 30.15 851 25.13 20.2 68.3 49 9.3 48.8
22:00 1021 30.15 851 25.13 20.1 68.1 50 9.4 48.9
22:05 1021 30.15 851 25.13 20 68 50 9.4 48.9
22:10 1021 30.15 851 25.13 20 67.9 52 9.9 49.8
22:15 1022 30.18 851 25.13 19.8 67.7 53 10.1 50.1
22:20 1021 30.15 851 25.13 19.8 67.6 53 10.1 50.2
22:25 1021 30.15 851 25.13 19.7 67.5 54 10.3 50.5
22:30 1021 30.15 851 25.13 19.6 67.2 56 10.5 51
22:35 1021 30.15 851 25.13 19.3 66.8 56 10.6 51.1
22:40 1021 30.15 851 25.13 19.2 66.6 57 10.6 51
22:45 1021 30.15 851 25.13 19.2 66.5 56 10.4 50.7
22:50 1021 30.15 851 25.13 19.1 66.4 56 10.3 50.6
22:55 1022 30.18 851 25.13 19.1 66.3 57 10.4 50.7
23:00 1022 30.18 851 25.13 19 66.1 56 10.2 50.3
23:05 1022 30.18 851 25.13 19 66.1 55 9.8 49.7
23:10 1022 30.18 851 25.13 19 66.2 54 9.5 49.1
23:15 1022 30.18 851 25.13 19.1 66.3 54 9.6 49.3
23:20 1022 30.18 851 25.13 18.9 66.1 54 9.6 49.3
23:25 1022 30.18 851 25.13 18.8 65.8 56 9.9 49.9
23:30 1022 30.18 851 25.13 18.5 65.3 57 10.1 50.1
23:35 1022 30.18 851 25.13 18.4 65.2 57 9.8 49.6
23:40 1022 30.18 851 25.13 18.5 65.3 56 9.6 49.2
23:45 1022 30.18 851 25.13 18.7 65.6 54 9.4 49
23:50 1022 30.18 851 25.13 19 66.1 53 9.3 48.7
23:55 1022 30.18 851 25.13 19.1 66.4 53 9.4 48.8
24:00 1022 30.18 851 25.13 19.1 66.3 53 9.3 48.8